Accueil
METAR-TAF:

METAR-TAF

Aéroports :

Aéroport international de Malacca

Melaka, Malaisie

latitude: 02-16N, longitude: 102-15E, altitude: 11 m

Observation

Le bulletin a été fait il y a 1 heure et 2 minutes, à 10:00 UTC
Vent 3 kt de direction variable
Température 31°C
Humidité 66%
Pression 1009 hPa
Visibilité 10 km ou plus
Quelques nuages à une hauteur de 2200 ft

METAR: WMKM 051000Z VRB03KT 9999 FEW022 31/24 Q1009

Heure: 19:02 (11:02 UTC)

Prévision

Le bulletin a été fait il y a 6 heures et 2 minutes, à 05:00 UTC
Prévision valable du 05 à 06 UTC au 06 à 06 UTC
Vent 6 kt de ouest
Visibilité 10 km ou plus
Quelques nuages à une hauteur de 1700 ft, Cumulonimbus.

TAF: WMKM 050500Z 0506/0606 26006KT 9999 FEW017CB

Observations et prévisions météorologiques de plus de 4000 aéroports (messages METAR et TAF).

Les stations disponibles sont représentées par des disques jaunes et rouges sur la carte.

Passer la souris dessus pour voir le nom de la station.

Cliquer dessus pour voir les observations et prévisions météorologiques.

Pour changer de carte: cliquez sur les boutons verts avec une croix noire pour zoomer, sur le bouton vert avec un tiret pour effectuer un zoom arrière, ou sur les flèches vertes pour les cartes adjacentes.


METAR-TAF: